sensor_id;sensor_type;location;lat;lon;timestamp;P1;durP1;ratioP1;P2;durP2;ratioP2
15748;SDS011;7976;52.526;13.326;2024-01-15T00:01:08;12.97;;;4.50;;
15748;SDS011;7976;52.526;13.326;2024-01-15T00:03:35;16.27;;;4.60;;
15748;SDS011;7976;52.526;13.326;2024-01-15T00:06:02;11.70;;;4.28;;
15748;SDS011;7976;52.526;13.326;2024-01-15T00:08:30;12.63;;;4.50;;
15748;SDS011;7976;52.526;13.326;2024-01-15T00:10:57;12.73;;;5.03;;
15748;SDS011;7976;52.526;13.326;2024-01-15T00:13:24;16.75;;;5.13;;
15748;SDS011;7976;52.526;13.326;2024-01-15T00:15:52;13.63;;;4.60;;
15748;SDS011;7976;52.526;13.326;2024-01-15T00:18:19;12.52;;;4.70;;
15748;SDS011;7976;52.526;13.326;2024-01-15T00:20:46;14.32;;;4.47;;
15748;SDS011;7976;52.526;13.326;2024-01-15T00:23:13;17.02;;;5.25;;
15748;SDS011;7976;52.526;13.326;2024-01-15T00:25:40;14.25;;;4.65;;
15748;SDS011;7976;52.526;13.326;2024-01-15T00:28:07;16.05;;;4.05;;
15748;SDS011;7976;52.526;13.326;2024-01-15T00:30:34;17.60;;;5.68;;
15748;SDS011;7976;52.526;13.326;2024-01-15T00:33:03;13.40;;;4.30;;
15748;SDS011;7976;52.526;13.326;2024-01-15T00:35:30;14.73;;;4.63;;
15748;SDS011;7976;52.526;13.326;2024-01-15T00:37:57;17.15;;;4.57;;
15748;SDS011;7976;52.526;13.326;2024-01-15T00:40:24;14.00;;;4.93;;
15748;SDS011;7976;52.526;13.326;2024-01-15T00:42:51;15.52;;;4.32;;
15748;SDS011;7976;52.526;13.326;2024-01-15T00:45:18;13.60;;;4.80;;
15748;SDS011;7976;52.526;13.326;2024-01-15T00:47:45;15.75;;;5.40;;
15748;SDS011;7976;52.526;13.326;2024-01-15T00:50:13;13.82;;;4.22;;
15748;SDS011;7976;52.526;13.326;2024-01-15T00:52:40;14.02;;;3.80;;
15748;SDS011;7976;52.526;13.326;2024-01-15T00:55:07;15.02;;;4.72;;
15748;SDS011;7976;52.526;13.326;2024-01-15T00:57:34;18.33;;;4.20;;
15748;SDS011;7976;52.526;13.326;2024-01-15T01:00:01;14.55;;;4.47;;
15748;SDS011;7976;52.526;13.326;2024-01-15T01:02:28;13.45;;;4.63;;
15748;SDS011;7976;52.526;13.326;2024-01-15T01:04:55;13.98;;;4.47;;
15748;SDS011;7976;52.526;13.326;2024-01-15T01:07:23;14.70;;;4.95;;
15748;SDS011;7976;52.526;13.326;2024-01-15T01:09:50;14.40;;;4.57;;
15748;SDS011;7976;52.526;13.326;2024-01-15T01:12:17;14.73;;;4.60;;
15748;SDS011;7976;52.526;13.326;2024-01-15T01:14:44;15.70;;;5.28;;
15748;SDS011;7976;52.526;13.326;2024-01-15T01:17:11;13.40;;;3.92;;
15748;SDS011;7976;52.526;13.326;2024-01-15T01:19:38;15.80;;;4.63;;
15748;SDS011;7976;52.526;13.326;2024-01-15T01:22:05;14.90;;;4.82;;
15748;SDS011;7976;52.526;13.326;2024-01-15T01:24:33;11.20;;;3.72;;
15748;SDS011;7976;52.526;13.326;2024-01-15T01:27:00;13.57;;;4.50;;
15748;SDS011;7976;52.526;13.326;2024-01-15T01:29:27;15.68;;;4.85;;
15748;SDS011;7976;52.526;13.326;2024-01-15T01:31:54;17.02;;;4.85;;
15748;SDS011;7976;52.526;13.326;2024-01-15T01:34:22;16.02;;;4.75;;
15748;SDS011;7976;52.526;13.326;2024-01-15T01:36:49;13.02;;;4.90;;
15748;SDS011;7976;52.526;13.326;2024-01-15T01:39:16;16.35;;;4.82;;
15748;SDS011;7976;52.526;13.326;2024-01-15T01:41:44;16.25;;;5.72;;
15748;SDS011;7976;52.526;13.326;2024-01-15T01:44:11;15.50;;;4.53;;
15748;SDS011;7976;52.526;13.326;2024-01-15T01:46:38;12.32;;;4.40;;
15748;SDS011;7976;52.526;13.326;2024-01-15T01:49:05;12.07;;;3.80;;
15748;SDS011;7976;52.526;13.326;2024-01-15T01:51:33;18.87;;;5.73;;
15748;SDS011;7976;52.526;13.326;2024-01-15T01:54:02;16.23;;;4.22;;
15748;SDS011;7976;52.526;13.326;2024-01-15T01:56:30;14.63;;;4.50;;
15748;SDS011;7976;52.526;13.326;2024-01-15T01:58:59;18.35;;;5.32;;
15748;SDS011;7976;52.526;13.326;2024-01-15T02:01:27;12.73;;;4.73;;
15748;SDS011;7976;52.526;13.326;2024-01-15T02:03:58;16.05;;;4.93;;
15748;SDS011;7976;52.526;13.326;2024-01-15T02:06:25;15.63;;;4.57;;
15748;SDS011;7976;52.526;13.326;2024-01-15T02:08:52;16.07;;;4.87;;
15748;SDS011;7976;52.526;13.326;2024-01-15T02:11:19;13.40;;;4.30;;
15748;SDS011;7976;52.526;13.326;2024-01-15T02:13:46;14.00;;;4.13;;
15748;SDS011;7976;52.526;13.326;2024-01-15T02:16:15;14.00;;;4.90;;
15748;SDS011;7976;52.526;13.326;2024-01-15T02:18:43;11.48;;;4.35;;
15748;SDS011;7976;52.526;13.326;2024-01-15T02:21:11;13.85;;;4.95;;
15748;SDS011;7976;52.526;13.326;2024-01-15T02:23:40;16.00;;;4.95;;
15748;SDS011;7976;52.526;13.326;2024-01-15T02:26:06;13.13;;;4.23;;
15748;SDS011;7976;52.526;13.326;2024-01-15T02:28:35;17.33;;;3.75;;
15748;SDS011;7976;52.526;13.326;2024-01-15T02:31:02;12.48;;;3.72;;
15748;SDS011;7976;52.526;13.326;2024-01-15T02:33:29;12.43;;;3.67;;
15748;SDS011;7976;52.526;13.326;2024-01-15T02:35:57;11.27;;;3.67;;
15748;SDS011;7976;52.526;13.326;2024-01-15T02:38:24;15.68;;;3.80;;
15748;SDS011;7976;52.526;13.326;2024-01-15T02:40:52;14.23;;;4.05;;
15748;SDS011;7976;52.526;13.326;2024-01-15T02:43:20;15.60;;;4.20;;
15748;SDS011;7976;52.526;13.326;2024-01-15T02:45:47;13.40;;;4.25;;
15748;SDS011;7976;52.526;13.326;2024-01-15T02:48:14;13.27;;;3.73;;
15748;SDS011;7976;52.526;13.326;2024-01-15T02:50:41;10.00;;;3.25;;
15748;SDS011;7976;52.526;13.326;2024-01-15T02:53:08;13.95;;;3.58;;
15748;SDS011;7976;52.526;13.326;2024-01-15T02:55:35;11.23;;;3.42;;
15748;SDS011;7976;52.526;13.326;2024-01-15T02:58:03;13.75;;;3.60;;
15748;SDS011;7976;52.526;13.326;2024-01-15T03:00:30;10.77;;;3.50;;
15748;SDS011;7976;52.526;13.326;2024-01-15T03:02:57;16.25;;;4.10;;
15748;SDS011;7976;52.526;13.326;2024-01-15T03:05:24;13.23;;;3.90;;
15748;SDS011;7976;52.526;13.326;2024-01-15T03:07:51;14.15;;;4.22;;
15748;SDS011;7976;52.526;13.326;2024-01-15T03:10:18;14.57;;;3.63;;
15748;SDS011;7976;52.526;13.326;2024-01-15T03:12:44;11.77;;;3.55;;
15748;SDS011;7976;52.526;13.326;2024-01-15T03:15:13;12.50;;;3.47;;
15748;SDS011;7976;52.526;13.326;2024-01-15T03:17:40;12.80;;;3.88;;
15748;SDS011;7976;52.526;13.326;2024-01-15T03:20:08;13.32;;;3.97;;
15748;SDS011;7976;52.526;13.326;2024-01-15T03:22:37;11.68;;;3.42;;
15748;SDS011;7976;52.526;13.326;2024-01-15T03:25:06;10.23;;;3.53;;
15748;SDS011;7976;52.526;13.326;2024-01-15T03:27:33;12.25;;;3.28;;
15748;SDS011;7976;52.526;13.326;2024-01-15T03:30:01;9.65;;;3.50;;
15748;SDS011;7976;52.526;13.326;2024-01-15T03:32:29;12.15;;;3.65;;
15748;SDS011;7976;52.526;13.326;2024-01-15T03:34:56;12.27;;;3.40;;
15748;SDS011;7976;52.526;13.326;2024-01-15T03:37:23;9.70;;;2.83;;
15748;SDS011;7976;52.526;13.326;2024-01-15T03:39:50;12.07;;;3.22;;
15748;SDS011;7976;52.526;13.326;2024-01-15T03:42:17;12.70;;;3.63;;
15748;SDS011;7976;52.526;13.326;2024-01-15T03:44:44;14.05;;;3.53;;
15748;SDS011;7976;52.526;13.326;2024-01-15T03:47:11;13.02;;;3.65;;
15748;SDS011;7976;52.526;13.326;2024-01-15T03:49:39;12.63;;;3.35;;
15748;SDS011;7976;52.526;13.326;2024-01-15T03:52:06;19.98;;;3.42;;
15748;SDS011;7976;52.526;13.326;2024-01-15T03:54:32;9.52;;;2.95;;
15748;SDS011;7976;52.526;13.326;2024-01-15T03:56:59;11.07;;;3.15;;
15748;SDS011;7976;52.526;13.326;2024-01-15T03:59:26;11.05;;;2.90;;
15748;SDS011;7976;52.526;13.326;2024-01-15T04:01:55;12.45;;;3.35;;
15748;SDS011;7976;52.526;13.326;2024-01-15T04:04:22;9.93;;;3.03;;
15748;SDS011;7976;52.526;13.326;2024-01-15T04:06:50;11.20;;;3.05;;
15748;SDS011;7976;52.526;13.326;2024-01-15T04:09:16;11.00;;;2.83;;
15748;SDS011;7976;52.526;13.326;2024-01-15T04:11:43;15.48;;;2.92;;
15748;SDS011;7976;52.526;13.326;2024-01-15T04:14:10;12.48;;;2.55;;
15748;SDS011;7976;52.526;13.326;2024-01-15T04:16:37;9.15;;;2.90;;
15748;SDS011;7976;52.526;13.326;2024-01-15T04:19:04;8.75;;;2.78;;
15748;SDS011;7976;52.526;13.326;2024-01-15T04:21:31;13.30;;;3.28;;
15748;SDS011;7976;52.526;13.326;2024-01-15T04:23:59;10.38;;;3.05;;
15748;SDS011;7976;52.526;13.326;2024-01-15T04:26:26;7.95;;;2.53;;
15748;SDS011;7976;52.526;13.326;2024-01-15T04:28:52;13.43;;;2.85;;
15748;SDS011;7976;52.526;13.326;2024-01-15T04:31:23;11.20;;;3.05;;
15748;SDS011;7976;52.526;13.326;2024-01-15T04:33:52;8.77;;;2.50;;
15748;SDS011;7976;52.526;13.326;2024-01-15T04:36:19;15.27;;;2.67;;
15748;SDS011;7976;52.526;13.326;2024-01-15T04:38:46;10.15;;;3.05;;
15748;SDS011;7976;52.526;13.326;2024-01-15T04:41:22;12.38;;;3.05;;
15748;SDS011;7976;52.526;13.326;2024-01-15T04:43:49;10.25;;;2.60;;
15748;SDS011;7976;52.526;13.326;2024-01-15T04:46:15;12.35;;;2.40;;
15748;SDS011;7976;52.526;13.326;2024-01-15T04:48:42;13.27;;;3.10;;
15748;SDS011;7976;52.526;13.326;2024-01-15T04:51:09;9.43;;;2.38;;
15748;SDS011;7976;52.526;13.326;2024-01-15T04:53:36;7.43;;;1.85;;
15748;SDS011;7976;52.526;13.326;2024-01-15T04:56:03;8.88;;;2.70;;
15748;SDS011;7976;52.526;13.326;2024-01-15T04:58:32;12.30;;;2.53;;
15748;SDS011;7976;52.526;13.326;2024-01-15T05:01:00;11.27;;;2.13;;
15748;SDS011;7976;52.526;13.326;2024-01-15T05:03:27;9.15;;;1.83;;
15748;SDS011;7976;52.526;13.326;2024-01-15T05:05:54;6.50;;;2.05;;
15748;SDS011;7976;52.526;13.326;2024-01-15T05:08:21;9.55;;;2.20;;
15748;SDS011;7976;52.526;13.326;2024-01-15T05:10:48;4.45;;;1.38;;
15748;SDS011;7976;52.526;13.326;2024-01-15T05:13:15;7.05;;;1.88;;
15748;SDS011;7976;52.526;13.326;2024-01-15T05:15:43;4.68;;;1.70;;
15748;SDS011;7976;52.526;13.326;2024-01-15T05:18:10;13.50;;;2.00;;
15748;SDS011;7976;52.526;13.326;2024-01-15T05:20:37;10.35;;;1.50;;
15748;SDS011;7976;52.526;13.326;2024-01-15T05:23:04;12.45;;;3.00;;
15748;SDS011;7976;52.526;13.326;2024-01-15T05:25:31;11.45;;;2.25;;
15748;SDS011;7976;52.526;13.326;2024-01-15T05:27:58;7.00;;;1.83;;
15748;SDS011;7976;52.526;13.326;2024-01-15T05:30:25;8.13;;;1.75;;
15748;SDS011;7976;52.526;13.326;2024-01-15T05:32:53;9.38;;;2.22;;
15748;SDS011;7976;52.526;13.326;2024-01-15T05:35:20;8.35;;;1.70;;
15748;SDS011;7976;52.526;13.326;2024-01-15T05:37:47;6.63;;;2.05;;
15748;SDS011;7976;52.526;13.326;2024-01-15T05:40:17;5.10;;;1.48;;
15748;SDS011;7976;52.526;13.326;2024-01-15T05:42:43;7.00;;;1.77;;
15748;SDS011;7976;52.526;13.326;2024-01-15T05:45:10;13.15;;;1.48;;
15748;SDS011;7976;52.526;13.326;2024-01-15T05:47:37;4.90;;;1.50;;
15748;SDS011;7976;52.526;13.326;2024-01-15T05:50:06;8.10;;;1.73;;
15748;SDS011;7976;52.526;13.326;2024-01-15T05:52:32;7.88;;;1.50;;
15748;SDS011;7976;52.526;13.326;2024-01-15T05:54:59;5.65;;;1.35;;
15748;SDS011;7976;52.526;13.326;2024-01-15T05:57:26;9.23;;;1.40;;
15748;SDS011;7976;52.526;13.326;2024-01-15T05:59:53;5.90;;;1.30;;
15748;SDS011;7976;52.526;13.326;2024-01-15T06:02:20;6.30;;;1.33;;
15748;SDS011;7976;52.526;13.326;2024-01-15T06:04:47;3.95;;;1.15;;
15748;SDS011;7976;52.526;13.326;2024-01-15T06:07:15;3.83;;;1.13;;
15748;SDS011;7976;52.526;13.326;2024-01-15T06:09:42;2.63;;;1.05;;
15748;SDS011;7976;52.526;13.326;2024-01-15T06:12:09;4.70;;;1.42;;
15748;SDS011;7976;52.526;13.326;2024-01-15T06:14:35;6.75;;;1.50;;
15748;SDS011;7976;52.526;13.326;2024-01-15T06:17:02;6.22;;;1.48;;
15748;SDS011;7976;52.526;13.326;2024-01-15T06:19:30;6.05;;;1.55;;
15748;SDS011;7976;52.526;13.326;2024-01-15T06:21:56;6.35;;;1.38;;
15748;SDS011;7976;52.526;13.326;2024-01-15T06:24:25;12.48;;;1.48;;
15748;SDS011;7976;52.526;13.326;2024-01-15T06:26:51;11.35;;;1.60;;
15748;SDS011;7976;52.526;13.326;2024-01-15T06:29:18;6.20;;;1.30;;
15748;SDS011;7976;52.526;13.326;2024-01-15T06:31:45;6.78;;;1.00;;
15748;SDS011;7976;52.526;13.326;2024-01-15T06:34:12;5.50;;;1.17;;
15748;SDS011;7976;52.526;13.326;2024-01-15T06:36:41;11.55;;;1.52;;
15748;SDS011;7976;52.526;13.326;2024-01-15T06:39:08;2.80;;;1.00;;
15748;SDS011;7976;52.526;13.326;2024-01-15T06:41:37;2.95;;;1.17;;
15748;SDS011;7976;52.526;13.326;2024-01-15T06:44:08;6.55;;;1.23;;
15748;SDS011;7976;52.526;13.326;2024-01-15T06:46:35;5.25;;;1.45;;
15748;SDS011;7976;52.526;13.326;2024-01-15T06:49:03;8.00;;;1.48;;
15748;SDS011;7976;52.526;13.326;2024-01-15T06:51:30;6.35;;;1.20;;
15748;SDS011;7976;52.526;13.326;2024-01-15T06:53:56;4.40;;;1.45;;
15748;SDS011;7976;52.526;13.326;2024-01-15T06:56:22;3.88;;;0.98;;
15748;SDS011;7976;52.526;13.326;2024-01-15T06:58:50;6.32;;;1.30;;
15748;SDS011;7976;52.526;13.326;2024-01-15T07:01:17;5.00;;;1.08;;
15748;SDS011;7976;52.526;13.326;2024-01-15T07:03:44;4.20;;;1.25;;
15748;SDS011;7976;52.526;13.326;2024-01-15T07:06:11;3.38;;;1.45;;
15748;SDS011;7976;52.526;13.326;2024-01-15T07:08:39;3.92;;;1.10;;
15748;SDS011;7976;52.526;13.326;2024-01-15T07:11:06;8.52;;;1.50;;
15748;SDS011;7976;52.526;13.326;2024-01-15T07:13:34;3.47;;;0.88;;
15748;SDS011;7976;52.526;13.326;2024-01-15T07:16:03;5.65;;;1.02;;
15748;SDS011;7976;52.526;13.326;2024-01-15T07:18:30;6.97;;;0.93;;
15748;SDS011;7976;52.526;13.326;2024-01-15T07:20:57;5.72;;;1.25;;
15748;SDS011;7976;52.526;13.326;2024-01-15T07:23:26;4.85;;;1.25;;
15748;SDS011;7976;52.526;13.326;2024-01-15T07:25:53;6.47;;;1.17;;
15748;SDS011;7976;52.526;13.326;2024-01-15T07:28:20;6.15;;;0.80;;
15748;SDS011;7976;52.526;13.326;2024-01-15T07:30:47;9.13;;;1.30;;
15748;SDS011;7976;52.526;13.326;2024-01-15T07:33:16;6.70;;;1.17;;
15748;SDS011;7976;52.526;13.326;2024-01-15T07:35:42;7.88;;;1.10;;
15748;SDS011;7976;52.526;13.326;2024-01-15T07:40:57;9.18;;;1.38;;
15748;SDS011;7976;52.526;13.326;2024-01-15T07:43:24;5.65;;;1.00;;
15748;SDS011;7976;52.526;13.326;2024-01-15T07:45:52;8.02;;;0.93;;
15748;SDS011;7976;52.526;13.326;2024-01-15T07:48:21;9.18;;;1.45;;
15748;SDS011;7976;52.526;13.326;2024-01-15T07:50:48;6.50;;;1.20;;
15748;SDS011;7976;52.526;13.326;2024-01-15T07:53:15;10.95;;;1.05;;
15748;SDS011;7976;52.526;13.326;2024-01-15T07:55:42;4.65;;;1.27;;
15748;SDS011;7976;52.526;13.326;2024-01-15T07:58:11;4.40;;;1.15;;
15748;SDS011;7976;52.526;13.326;2024-01-15T08:00:38;10.25;;;1.63;;
15748;SDS011;7976;52.526;13.326;2024-01-15T08:03:04;10.32;;;1.80;;
15748;SDS011;7976;52.526;13.326;2024-01-15T08:05:33;8.48;;;1.38;;
15748;SDS011;7976;52.526;13.326;2024-01-15T08:08:00;9.80;;;1.13;;
15748;SDS011;7976;52.526;13.326;2024-01-15T08:10:27;4.68;;;1.15;;
15748;SDS011;7976;52.526;13.326;2024-01-15T08:12:54;8.77;;;1.23;;
15748;SDS011;7976;52.526;13.326;2024-01-15T08:15:21;5.75;;;1.40;;
15748;SDS011;7976;52.526;13.326;2024-01-15T08:17:47;6.10;;;1.50;;
15748;SDS011;7976;52.526;13.326;2024-01-15T08:20:15;8.07;;;1.42;;
15748;SDS011;7976;52.526;13.326;2024-01-15T08:22:43;6.97;;;1.50;;
15748;SDS011;7976;52.526;13.326;2024-01-15T08:25:11;2.58;;;0.57;;
15748;SDS011;7976;52.526;13.326;2024-01-15T08:27:38;8.93;;;1.08;;
15748;SDS011;7976;52.526;13.326;2024-01-15T08:30:06;5.72;;;0.98;;
15748;SDS011;7976;52.526;13.326;2024-01-15T08:32:34;9.07;;;1.42;;
15748;SDS011;7976;52.526;13.326;2024-01-15T08:35:05;5.70;;;1.30;;
15748;SDS011;7976;52.526;13.326;2024-01-15T08:37:33;10.05;;;1.23;;
15748;SDS011;7976;52.526;13.326;2024-01-15T08:40:01;6.13;;;1.10;;
15748;SDS011;7976;52.526;13.326;2024-01-15T08:42:29;4.28;;;0.93;;
15748;SDS011;7976;52.526;13.326;2024-01-15T08:44:55;4.18;;;0.70;;
15748;SDS011;7976;52.526;13.326;2024-01-15T08:47:22;8.10;;;1.40;;
15748;SDS011;7976;52.526;13.326;2024-01-15T08:49:50;8.95;;;1.20;;
15748;SDS011;7976;52.526;13.326;2024-01-15T08:52:17;5.00;;;1.02;;
15748;SDS011;7976;52.526;13.326;2024-01-15T08:54:45;6.90;;;1.02;;
15748;SDS011;7976;52.526;13.326;2024-01-15T08:57:13;3.88;;;1.20;;
15748;SDS011;7976;52.526;13.326;2024-01-15T08:59:40;7.10;;;1.40;;
15748;SDS011;7976;52.526;13.326;2024-01-15T09:02:07;3.42;;;0.93;;
15748;SDS011;7976;52.526;13.326;2024-01-15T09:04:35;4.40;;;1.42;;
15748;SDS011;7976;52.526;13.326;2024-01-15T09:07:02;6.05;;;1.48;;
15748;SDS011;7976;52.526;13.326;2024-01-15T09:09:28;7.43;;;1.20;;
15748;SDS011;7976;52.526;13.326;2024-01-15T09:11:55;9.38;;;1.08;;
15748;SDS011;7976;52.526;13.326;2024-01-15T09:14:24;3.38;;;1.10;;
15748;SDS011;7976;52.526;13.326;2024-01-15T09:16:52;9.65;;;1.88;;
15748;SDS011;7976;52.526;13.326;2024-01-15T09:19:19;9.23;;;1.67;;
15748;SDS011;7976;52.526;13.326;2024-01-15T09:21:46;7.25;;;1.60;;
15748;SDS011;7976;52.526;13.326;2024-01-15T09:24:13;6.45;;;1.48;;
15748;SDS011;7976;52.526;13.326;2024-01-15T09:26:40;5.93;;;1.27;;
15748;SDS011;7976;52.526;13.326;2024-01-15T09:29:07;8.82;;;1.35;;
15748;SDS011;7976;52.526;13.326;2024-01-15T09:31:36;6.90;;;1.30;;
15748;SDS011;7976;52.526;13.326;2024-01-15T09:34:03;11.15;;;1.98;;
15748;SDS011;7976;52.526;13.326;2024-01-15T09:36:30;7.85;;;1.55;;
15748;SDS011;7976;52.526;13.326;2024-01-15T09:38:57;5.25;;;1.20;;
15748;SDS011;7976;52.526;13.326;2024-01-15T09:41:23;6.85;;;1.30;;
15748;SDS011;7976;52.526;13.326;2024-01-15T09:43:51;7.22;;;1.23;;
15748;SDS011;7976;52.526;13.326;2024-01-15T09:46:18;9.93;;;1.33;;
15748;SDS011;7976;52.526;13.326;2024-01-15T09:48:46;5.70;;;1.20;;
15748;SDS011;7976;52.526;13.326;2024-01-15T09:51:14;9.63;;;1.10;;
15748;SDS011;7976;52.526;13.326;2024-01-15T09:53:42;4.47;;;1.08;;
15748;SDS011;7976;52.526;13.326;2024-01-15T09:56:11;7.88;;;1.17;;
15748;SDS011;7976;52.526;13.326;2024-01-15T09:58:38;4.00;;;1.20;;
15748;SDS011;7976;52.526;13.326;2024-01-15T10:01:06;10.57;;;1.50;;
15748;SDS011;7976;52.526;13.326;2024-01-15T10:03:34;4.53;;;0.98;;
15748;SDS011;7976;52.526;13.326;2024-01-15T10:06:04;4.15;;;1.27;;
15748;SDS011;7976;52.526;13.326;2024-01-15T10:08:33;5.35;;;1.48;;
15748;SDS011;7976;52.526;13.326;2024-01-15T10:11:04;5.75;;;1.45;;
15748;SDS011;7976;52.526;13.326;2024-01-15T10:13:31;5.72;;;1.40;;
15748;SDS011;7976;52.526;13.326;2024-01-15T10:16:00;4.90;;;1.20;;
15748;SDS011;7976;52.526;13.326;2024-01-15T10:18:28;8.15;;;1.40;;
15748;SDS011;7976;52.526;13.326;2024-01-15T10:20:56;6.13;;;1.58;;
15748;SDS011;7976;52.526;13.326;2024-01-15T10:23:24;4.90;;;1.27;;
15748;SDS011;7976;52.526;13.326;2024-01-15T10:25:51;6.60;;;1.55;;
15748;SDS011;7976;52.526;13.326;2024-01-15T10:28:18;5.50;;;1.20;;
15748;SDS011;7976;52.526;13.326;2024-01-15T10:30:45;3.28;;;1.17;;
15748;SDS011;7976;52.526;13.326;2024-01-15T10:33:12;5.22;;;1.15;;
15748;SDS011;7976;52.526;13.326;2024-01-15T10:35:40;6.95;;;1.92;;
15748;SDS011;7976;52.526;13.326;2024-01-15T10:38:07;9.35;;;1.35;;
15748;SDS011;7976;52.526;13.326;2024-01-15T10:40:35;5.07;;;0.90;;
15748;SDS011;7976;52.526;13.326;2024-01-15T10:43:02;7.25;;;1.23;;
15748;SDS011;7976;52.526;13.326;2024-01-15T10:45:30;5.60;;;1.30;;
15748;SDS011;7976;52.526;13.326;2024-01-15T10:47:56;6.35;;;1.30;;
15748;SDS011;7976;52.526;13.326;2024-01-15T10:50:25;9.13;;;1.38;;
15748;SDS011;7976;52.526;13.326;2024-01-15T10:52:52;3.58;;;0.85;;
15748;SDS011;7976;52.526;13.326;2024-01-15T10:55:19;3.42;;;0.90;;
15748;SDS011;7976;52.526;13.326;2024-01-15T10:57:49;3.15;;;0.82;;
15748;SDS011;7976;52.526;13.326;2024-01-15T11:00:16;5.53;;;0.80;;
15748;SDS011;7976;52.526;13.326;2024-01-15T11:02:44;3.50;;;0.95;;
15748;SDS011;7976;52.526;13.326;2024-01-15T11:05:11;8.43;;;1.08;;
15748;SDS011;7976;52.526;13.326;2024-01-15T11:07:39;3.97;;;1.15;;
15748;SDS011;7976;52.526;13.326;2024-01-15T11:10:07;5.93;;;1.20;;
15748;SDS011;7976;52.526;13.326;2024-01-15T11:12:57;3.30;;;0.88;;
15748;SDS011;7976;52.526;13.326;2024-01-15T11:15:24;2.38;;;0.80;;
15748;SDS011;7976;52.526;13.326;2024-01-15T11:18:00;4.40;;;0.93;;
15748;SDS011;7976;52.526;13.326;2024-01-15T11:20:30;3.88;;;0.85;;
15748;SDS011;7976;52.526;13.326;2024-01-15T11:22:57;4.93;;;0.80;;
15748;SDS011;7976;52.526;13.326;2024-01-15T11:25:24;2.40;;;0.85;;
15748;SDS011;7976;52.526;13.326;2024-01-15T11:28:03;3.97;;;0.80;;
15748;SDS011;7976;52.526;13.326;2024-01-15T11:30:31;2.30;;;0.73;;
15748;SDS011;7976;52.526;13.326;2024-01-15T11:33:01;4.65;;;0.90;;
15748;SDS011;7976;52.526;13.326;2024-01-15T11:38:26;4.10;;;1.13;;
15748;SDS011;7976;52.526;13.326;2024-01-15T11:40:55;3.72;;;0.80;;
15748;SDS011;7976;52.526;13.326;2024-01-15T11:43:23;4.75;;;0.85;;
15748;SDS011;7976;52.526;13.326;2024-01-15T11:45:53;5.75;;;1.20;;
15748;SDS011;7976;52.526;13.326;2024-01-15T11:48:21;4.45;;;1.40;;
15748;SDS011;7976;52.526;13.326;2024-01-15T11:50:54;3.70;;;0.95;;
15748;SDS011;7976;52.526;13.326;2024-01-15T11:53:27;2.17;;;0.93;;
15748;SDS011;7976;52.526;13.326;2024-01-15T11:56:02;2.50;;;0.80;;
15748;SDS011;7976;52.526;13.326;2024-01-15T11:58:39;6.55;;;1.52;;
15748;SDS011;7976;52.526;13.326;2024-01-15T12:01:06;3.47;;;1.00;;
15748;SDS011;7976;52.526;13.326;2024-01-15T12:03:33;6.10;;;1.10;;
15748;SDS011;7976;52.526;13.326;2024-01-15T12:06:00;5.50;;;1.40;;
15748;SDS011;7976;52.526;13.326;2024-01-15T12:08:28;3.10;;;0.88;;
15748;SDS011;7976;52.526;13.326;2024-01-15T12:10:55;5.05;;;1.05;;
15748;SDS011;7976;52.526;13.326;2024-01-15T12:13:22;5.80;;;1.30;;
15748;SDS011;7976;52.526;13.326;2024-01-15T12:15:50;4.47;;;1.50;;
15748;SDS011;7976;52.526;13.326;2024-01-15T12:18:17;6.70;;;1.10;;
15748;SDS011;7976;52.526;13.326;2024-01-15T12:20:45;4.82;;;1.20;;
15748;SDS011;7976;52.526;13.326;2024-01-15T12:23:13;4.18;;;1.00;;
15748;SDS011;7976;52.526;13.326;2024-01-15T12:25:43;2.90;;;0.93;;
15748;SDS011;7976;52.526;13.326;2024-01-15T12:28:10;2.20;;;0.80;;
15748;SDS011;7976;52.526;13.326;2024-01-15T12:30:38;3.65;;;0.90;;
15748;SDS011;7976;52.526;13.326;2024-01-15T12:33:07;3.55;;;0.90;;
15748;SDS011;7976;52.526;13.326;2024-01-15T12:35:34;1.95;;;0.82;;
15748;SDS011;7976;52.526;13.326;2024-01-15T12:38:02;3.65;;;0.90;;
15748;SDS011;7976;52.526;13.326;2024-01-15T12:40:30;2.60;;;0.93;;
15748;SDS011;7976;52.526;13.326;2024-01-15T12:42:59;4.43;;;0.90;;
15748;SDS011;7976;52.526;13.326;2024-01-15T12:45:26;3.97;;;0.90;;
15748;SDS011;7976;52.526;13.326;2024-01-15T12:47:53;3.40;;;1.00;;
15748;SDS011;7976;52.526;13.326;2024-01-15T12:50:25;2.72;;;1.13;;
15748;SDS011;7976;52.526;13.326;2024-01-15T12:52:52;1.88;;;0.60;;
15748;SDS011;7976;52.526;13.326;2024-01-15T12:55:19;4.13;;;0.93;;
15748;SDS011;7976;52.526;13.326;2024-01-15T12:57:46;4.40;;;1.05;;
15748;SDS011;7976;52.526;13.326;2024-01-15T13:00:15;3.60;;;1.08;;
15748;SDS011;7976;52.526;13.326;2024-01-15T13:02:42;4.88;;;0.75;;
15748;SDS011;7976;52.526;13.326;2024-01-15T13:05:09;1.75;;;0.47;;
15748;SDS011;7976;52.526;13.326;2024-01-15T13:07:38;3.58;;;0.57;;
15748;SDS011;7976;52.526;13.326;2024-01-15T13:10:06;2.35;;;0.82;;
15748;SDS011;7976;52.526;13.326;2024-01-15T13:12:34;7.45;;;1.10;;
15748;SDS011;7976;52.526;13.326;2024-01-15T13:15:01;5.40;;;0.88;;
15748;SDS011;7976;52.526;13.326;2024-01-15T13:17:29;4.35;;;0.85;;
15748;SDS011;7976;52.526;13.326;2024-01-15T13:19:56;4.25;;;1.13;;
15748;SDS011;7976;52.526;13.326;2024-01-15T13:22:23;2.78;;;0.88;;
15748;SDS011;7976;52.526;13.326;2024-01-15T13:24:56;1.58;;;0.70;;
15748;SDS011;7976;52.526;13.326;2024-01-15T13:27:23;3.50;;;1.05;;
15748;SDS011;7976;52.526;13.326;2024-01-15T13:29:50;4.78;;;1.20;;
15748;SDS011;7976;52.526;13.326;2024-01-15T13:32:17;2.90;;;0.90;;
15748;SDS011;7976;52.526;13.326;2024-01-15T13:34:50;4.25;;;1.00;;
15748;SDS011;7976;52.526;13.326;2024-01-15T13:37:17;2.63;;;0.82;;
15748;SDS011;7976;52.526;13.326;2024-01-15T13:39:44;4.07;;;1.10;;
15748;SDS011;7976;52.526;13.326;2024-01-15T13:42:12;3.90;;;1.10;;
15748;SDS011;7976;52.526;13.326;2024-01-15T13:44:40;2.30;;;0.90;;
15748;SDS011;7976;52.526;13.326;2024-01-15T13:47:07;4.82;;;1.17;;
15748;SDS011;7976;52.526;13.326;2024-01-15T13:49:34;4.83;;;1.00;;
15748;SDS011;7976;52.526;13.326;2024-01-15T13:52:02;4.70;;;1.63;;
15748;SDS011;7976;52.526;13.326;2024-01-15T13:54:29;3.85;;;1.05;;
15748;SDS011;7976;52.526;13.326;2024-01-15T13:56:56;3.28;;;0.80;;
15748;SDS011;7976;52.526;13.326;2024-01-15T13:59:25;7.80;;;1.88;;
15748;SDS011;7976;52.526;13.326;2024-01-15T14:01:52;4.38;;;1.05;;
15748;SDS011;7976;52.526;13.326;2024-01-15T14:04:19;3.63;;;1.17;;
15748;SDS011;7976;52.526;13.326;2024-01-15T14:06:46;8.35;;;1.17;;
15748;SDS011;7976;52.526;13.326;2024-01-15T14:09:12;5.85;;;1.27;;
15748;SDS011;7976;52.526;13.326;2024-01-15T14:11:39;6.85;;;1.52;;
15748;SDS011;7976;52.526;13.326;2024-01-15T14:14:06;6.05;;;1.17;;
15748;SDS011;7976;52.526;13.326;2024-01-15T14:16:35;4.68;;;1.30;;
15748;SDS011;7976;52.526;13.326;2024-01-15T14:19:02;7.60;;;2.15;;
15748;SDS011;7976;52.526;13.326;2024-01-15T14:21:31;4.28;;;0.93;;
15748;SDS011;7976;52.526;13.326;2024-01-15T14:23:58;5.40;;;1.48;;
15748;SDS011;7976;52.526;13.326;2024-01-15T14:26:25;7.13;;;1.10;;
15748;SDS011;7976;52.526;13.326;2024-01-15T14:28:52;5.30;;;0.93;;
15748;SDS011;7976;52.526;13.326;2024-01-15T14:31:19;5.45;;;1.20;;
15748;SDS011;7976;52.526;13.326;2024-01-15T14:33:48;5.93;;;1.27;;
15748;SDS011;7976;52.526;13.326;2024-01-15T14:36:15;5.13;;;1.10;;
15748;SDS011;7976;52.526;13.326;2024-01-15T14:38:41;6.78;;;1.52;;
15748;SDS011;7976;52.526;13.326;2024-01-15T14:41:08;5.05;;;0.93;;
15748;SDS011;7976;52.526;13.326;2024-01-15T14:43:35;3.75;;;1.17;;
15748;SDS011;7976;52.526;13.326;2024-01-15T14:46:02;6.43;;;1.33;;
15748;SDS011;7976;52.526;13.326;2024-01-15T14:48:30;6.03;;;1.40;;
15748;SDS011;7976;52.526;13.326;2024-01-15T14:50:59;2.47;;;0.90;;